Accueil
METAR-TAF:

METAR-TAF

Aéroports :

Loreto, Mexique

latitude: 26-01N, longitude: 111-21W, altitude: 15 m

Observation

Le bulletin a été fait il y a 1 heure et 32 minutes, à 15:42 UTC
Vent calme
Température 31°C
Humidité 66%
Pression 1014 hPa
Visibilité: 16.1 km
Quelques nuages à une hauteur de 20000 ft

METAR: MMLT 151542Z 00000KT 10SM FEW200 31/24 A2995 RMK 8/030

Heure: 11:14 (17:14 UTC)

Prévision

Le bulletin a été fait il y a 11 heures et 34 minutes, à 05:40 UTC
Prévision valable du 15 à 06 UTC au 16 à 06 UTC
Vent 5 kt de sud
Visibilité: 10 km
Ciel clair
A partir de 15 à 1500 UTC
Vent 10 kt de est/sud-est
Visibilité: 10 km
Nuages fragmentés à une hauteur de 24000 ft
A partir de 16 à 0000 UTC
Vent 5 kt de nord
Visibilité: 10 km
Nuages fragmentés à une hauteur de 24000 ft

TAF: MMLT 150540Z 1506/1606 18005KT P6SM SKC FM151500 12010KT P6SM BKN240 FM160000 36005KT P6SM BKN240

Observations et prévisions météorologiques de plus de 4000 aéroports (messages METAR et TAF).

Les stations disponibles sont représentées par des disques jaunes et rouges sur la carte.

Passer la souris dessus pour voir le nom de la station.

Cliquer dessus pour voir les observations et prévisions météorologiques.

Pour changer de carte: cliquez sur les boutons verts avec une croix noire pour zoomer, sur le bouton vert avec un tiret pour effectuer un zoom arrière, ou sur les flèches vertes pour les cartes adjacentes.


METAR-TAF: